KSKA/SKA METAR and TAF weather

Enter ICAO airport designator
Station Type Date Time Source
KSKA METAR 2020/08/15 14:58 UTC NOAA

KSKA 151458Z AUTO 08006KT 10SM CLR 18/04 A3014 RMK AO2 SLP196 T01780037 52008 $


Station Type Date Time Source
KSKA Decoded METAR 2020/08/15 14:58 UTC NOAA

Fairchild Air Force Base, WA, United States (KSKA) 47-37N 117-39W
Aug 15, 2020 - 10:58 AM EDT / 2020.08.15 1458 UTC
Wind: from the E (080 degrees) at 7 MPH (6 KT):0
Visibility: 10 mile(s):0
Sky conditions: clear
Temperature: 64.0 F (17.8 C)
Dew Point: 38.7 F (3.7 C)
Relative Humidity: 39%
Pressure (altimeter): 30.14 in. Hg (1020 hPa)
Pressure tendency: 0.02 inches (0.8 hPa) higher than three hours ago
ob: KSKA 151458Z AUTO 08006KT 10SM CLR 18/04 A3014 RMK AO2 SLP196 T01780037 52008
cycle: 15

Station Type Date Time Source
KSKA TAF 2020/08/15 11:03 UTC NOAA

TAF TAF KSKA 151100Z 1511/1617 12009KT 9999 SKC QNH3002INS WND 18009KT AFT 1518 TX31/1523Z TN11/1512Z

Example: see airport list